sensor_id;sensor_type;location;lat;lon;timestamp;pressure;altitude;pressure_sealevel;temperature
54306;BMP280;50434;45.188;5.712;2022-08-19T00:00:23;99045.31;;;20.13
54306;BMP280;50434;45.188;5.712;2022-08-19T00:02:49;99041.44;;;20.07
54306;BMP280;50434;45.188;5.712;2022-08-19T00:05:15;99036.78;;;20.09
54306;BMP280;50434;45.188;5.712;2022-08-19T00:07:41;99038.09;;;20.08
54306;BMP280;50434;45.188;5.712;2022-08-19T00:10:09;99031.28;;;20.00
54306;BMP280;50434;45.188;5.712;2022-08-19T00:12:35;99027.63;;;19.97
54306;BMP280;50434;45.188;5.712;2022-08-19T00:15:07;99032.63;;;19.99
54306;BMP280;50434;45.188;5.712;2022-08-19T00:17:37;99029.38;;;20.02
54306;BMP280;50434;45.188;5.712;2022-08-19T00:20:03;99031.28;;;20.00
54306;BMP280;50434;45.188;5.712;2022-08-19T00:22:28;99036.50;;;20.05
54306;BMP280;50434;45.188;5.712;2022-08-19T00:24:54;99043.19;;;20.12
54306;BMP280;50434;45.188;5.712;2022-08-19T00:27:19;99036.91;;;20.11
54306;BMP280;50434;45.188;5.712;2022-08-19T00:29:45;99043.91;;;20.12
54306;BMP280;50434;45.188;5.712;2022-08-19T00:32:10;99052.31;;;20.14
54306;BMP280;50434;45.188;5.712;2022-08-19T00:34:35;99035.84;;;20.16
54306;BMP280;50434;45.188;5.712;2022-08-19T00:37:01;99047.06;;;20.18
54306;BMP280;50434;45.188;5.712;2022-08-19T00:39:26;99049.97;;;20.20
54306;BMP280;50434;45.188;5.712;2022-08-19T00:41:52;99050.84;;;20.23
54306;BMP280;50434;45.188;5.712;2022-08-19T00:44:25;99046.72;;;20.24
54306;BMP280;50434;45.188;5.712;2022-08-19T00:46:53;99060.28;;;20.29
54306;BMP280;50434;45.188;5.712;2022-08-19T00:49:27;99053.38;;;20.30
54306;BMP280;50434;45.188;5.712;2022-08-19T00:51:56;99050.34;;;20.26
54306;BMP280;50434;45.188;5.712;2022-08-19T00:54:25;99050.25;;;20.24
54306;BMP280;50434;45.188;5.712;2022-08-19T00:56:51;99046.88;;;20.26
54306;BMP280;50434;45.188;5.712;2022-08-19T00:59:17;99046.00;;;20.23
54306;BMP280;50434;45.188;5.712;2022-08-19T01:01:44;99050.09;;;20.22
54306;BMP280;50434;45.188;5.712;2022-08-19T01:04:11;99040.94;;;20.20
54306;BMP280;50434;45.188;5.712;2022-08-19T01:06:38;99041.53;;;20.18
54306;BMP280;50434;45.188;5.712;2022-08-19T01:09:05;99044.16;;;20.16
54306;BMP280;50434;45.188;5.712;2022-08-19T01:11:32;99037.19;;;20.15
54306;BMP280;50434;45.188;5.712;2022-08-19T01:13:58;99040.97;;;20.10
54306;BMP280;50434;45.188;5.712;2022-08-19T01:16:25;99039.53;;;20.09
54306;BMP280;50434;45.188;5.712;2022-08-19T01:18:52;99034.91;;;20.02
54306;BMP280;50434;45.188;5.712;2022-08-19T01:23:48;99025.00;;;20.09
54306;BMP280;50434;45.188;5.712;2022-08-19T01:26:17;99020.16;;;20.09
54306;BMP280;50434;45.188;5.712;2022-08-19T01:28:44;99019.88;;;20.05
54306;BMP280;50434;45.188;5.712;2022-08-19T01:31:17;99025.56;;;20.07
54306;BMP280;50434;45.188;5.712;2022-08-19T01:33:44;99027.59;;;20.07
54306;BMP280;50434;45.188;5.712;2022-08-19T01:36:14;99016.78;;;20.11
54306;BMP280;50434;45.188;5.712;2022-08-19T01:38:42;99009.34;;;20.13
54306;BMP280;50434;45.188;5.712;2022-08-19T01:41:10;99009.16;;;20.21
54306;BMP280;50434;45.188;5.712;2022-08-19T01:43:36;99020.84;;;20.19
54306;BMP280;50434;45.188;5.712;2022-08-19T01:46:02;99017.00;;;20.24
54306;BMP280;50434;45.188;5.712;2022-08-19T01:48:37;99022.28;;;20.20
54306;BMP280;50434;45.188;5.712;2022-08-19T01:51:03;99025.91;;;20.23
54306;BMP280;50434;45.188;5.712;2022-08-19T01:53:29;99022.41;;;20.22
54306;BMP280;50434;45.188;5.712;2022-08-19T01:55:55;99030.19;;;20.14
54306;BMP280;50434;45.188;5.712;2022-08-19T01:58:25;99030.53;;;20.09
54306;BMP280;50434;45.188;5.712;2022-08-19T02:00:54;99029.16;;;20.10
54306;BMP280;50434;45.188;5.712;2022-08-19T02:03:19;99023.06;;;20.11
54306;BMP280;50434;45.188;5.712;2022-08-19T02:05:45;99022.66;;;20.05
54306;BMP280;50434;45.188;5.712;2022-08-19T02:08:11;99030.97;;;20.05
54306;BMP280;50434;45.188;5.712;2022-08-19T02:10:43;99026.47;;;20.00
54306;BMP280;50434;45.188;5.712;2022-08-19T02:13:10;99030.31;;;19.95
54306;BMP280;50434;45.188;5.712;2022-08-19T02:15:35;99031.16;;;19.98
54306;BMP280;50434;45.188;5.712;2022-08-19T02:18:01;99031.41;;;20.02
54306;BMP280;50434;45.188;5.712;2022-08-19T02:20:26;99033.59;;;20.03
54306;BMP280;50434;45.188;5.712;2022-08-19T02:22:52;99033.47;;;20.01
54306;BMP280;50434;45.188;5.712;2022-08-19T02:25:17;99022.84;;;19.98
54306;BMP280;50434;45.188;5.712;2022-08-19T02:27:43;99023.13;;;20.02
54306;BMP280;50434;45.188;5.712;2022-08-19T02:30:16;99020.75;;;20.08
54306;BMP280;50434;45.188;5.712;2022-08-19T02:32:42;99025.28;;;20.03
54306;BMP280;50434;45.188;5.712;2022-08-19T02:35:08;99026.88;;;20.06
54306;BMP280;50434;45.188;5.712;2022-08-19T02:37:34;99034.59;;;20.08
54306;BMP280;50434;45.188;5.712;2022-08-19T02:40:18;99038.22;;;20.10
54306;BMP280;50434;45.188;5.712;2022-08-19T02:42:45;99040.25;;;20.10
54306;BMP280;50434;45.188;5.712;2022-08-19T02:45:12;99044.63;;;20.13
54306;BMP280;50434;45.188;5.712;2022-08-19T02:47:38;99050.28;;;20.15
54306;BMP280;50434;45.188;5.712;2022-08-19T02:50:04;99049.44;;;20.12
54306;BMP280;50434;45.188;5.712;2022-08-19T02:52:32;99062.56;;;20.12
54306;BMP280;50434;45.188;5.712;2022-08-19T02:54:57;99048.44;;;20.08
54306;BMP280;50434;45.188;5.712;2022-08-19T02:57:23;99047.88;;;20.00
54306;BMP280;50434;45.188;5.712;2022-08-19T02:59:49;99057.97;;;19.95
54306;BMP280;50434;45.188;5.712;2022-08-19T03:02:15;99058.16;;;19.88
54306;BMP280;50434;45.188;5.712;2022-08-19T03:04:41;99048.44;;;19.77
54306;BMP280;50434;45.188;5.712;2022-08-19T03:07:08;99064.28;;;19.77
54306;BMP280;50434;45.188;5.712;2022-08-19T03:09:36;99059.66;;;19.70
54306;BMP280;50434;45.188;5.712;2022-08-19T03:12:04;99062.75;;;19.64
54306;BMP280;50434;45.188;5.712;2022-08-19T03:14:33;99063.94;;;19.61
54306;BMP280;50434;45.188;5.712;2022-08-19T03:16:59;99059.13;;;19.62
54306;BMP280;50434;45.188;5.712;2022-08-19T03:19:25;99065.09;;;19.58
54306;BMP280;50434;45.188;5.712;2022-08-19T03:21:51;99065.50;;;19.64
54306;BMP280;50434;45.188;5.712;2022-08-19T03:24:18;99057.38;;;19.66
54306;BMP280;50434;45.188;5.712;2022-08-19T03:26:47;99072.97;;;19.62
54306;BMP280;50434;45.188;5.712;2022-08-19T03:29:13;99074.41;;;19.63
54306;BMP280;50434;45.188;5.712;2022-08-19T03:31:40;99077.75;;;19.61
54306;BMP280;50434;45.188;5.712;2022-08-19T03:34:06;99069.16;;;19.57
54306;BMP280;50434;45.188;5.712;2022-08-19T03:36:32;99072.34;;;19.63
54306;BMP280;50434;45.188;5.712;2022-08-19T03:38:59;99080.53;;;19.61
54306;BMP280;50434;45.188;5.712;2022-08-19T03:41:37;99079.19;;;19.62
54306;BMP280;50434;45.188;5.712;2022-08-19T03:44:04;99087.19;;;19.68
54306;BMP280;50434;45.188;5.712;2022-08-19T03:46:31;99089.84;;;19.66
54306;BMP280;50434;45.188;5.712;2022-08-19T03:48:59;99091.88;;;19.65
54306;BMP280;50434;45.188;5.712;2022-08-19T03:51:27;99090.72;;;19.59
54306;BMP280;50434;45.188;5.712;2022-08-19T03:53:54;99093.03;;;19.62
54306;BMP280;50434;45.188;5.712;2022-08-19T03:56:21;99096.97;;;19.59
54306;BMP280;50434;45.188;5.712;2022-08-19T03:58:46;99088.69;;;19.59
54306;BMP280;50434;45.188;5.712;2022-08-19T04:01:17;99098.13;;;19.66
54306;BMP280;50434;45.188;5.712;2022-08-19T04:03:44;99103.06;;;19.67
54306;BMP280;50434;45.188;5.712;2022-08-19T04:06:23;99113.72;;;19.61
54306;BMP280;50434;45.188;5.712;2022-08-19T04:08:51;99110.50;;;19.65
54306;BMP280;50434;45.188;5.712;2022-08-19T04:11:20;99115.88;;;19.63
54306;BMP280;50434;45.188;5.712;2022-08-19T04:13:47;99113.56;;;19.69
54306;BMP280;50434;45.188;5.712;2022-08-19T04:16:12;99124.91;;;19.63
54306;BMP280;50434;45.188;5.712;2022-08-19T04:18:39;99119.66;;;19.67
54306;BMP280;50434;45.188;5.712;2022-08-19T04:21:06;99124.16;;;19.72
54306;BMP280;50434;45.188;5.712;2022-08-19T04:23:33;99122.97;;;19.75
54306;BMP280;50434;45.188;5.712;2022-08-19T04:25:59;99126.19;;;19.81
54306;BMP280;50434;45.188;5.712;2022-08-19T04:28:25;99130.41;;;19.82
54306;BMP280;50434;45.188;5.712;2022-08-19T04:30:53;99136.94;;;19.87
54306;BMP280;50434;45.188;5.712;2022-08-19T04:33:23;99143.78;;;19.86
54306;BMP280;50434;45.188;5.712;2022-08-19T04:35:51;99145.44;;;19.79
54306;BMP280;50434;45.188;5.712;2022-08-19T04:38:18;99137.38;;;19.83
54306;BMP280;50434;45.188;5.712;2022-08-19T04:40:46;99142.66;;;19.79
54306;BMP280;50434;45.188;5.712;2022-08-19T04:43:31;99144.53;;;19.86
54306;BMP280;50434;45.188;5.712;2022-08-19T04:45:57;99149.16;;;19.84
54306;BMP280;50434;45.188;5.712;2022-08-19T04:48:23;99146.72;;;19.88
54306;BMP280;50434;45.188;5.712;2022-08-19T04:50:54;99148.44;;;19.93
54306;BMP280;50434;45.188;5.712;2022-08-19T04:53:33;99153.97;;;19.93
54306;BMP280;50434;45.188;5.712;2022-08-19T04:56:03;99155.84;;;19.90
54306;BMP280;50434;45.188;5.712;2022-08-19T04:58:29;99150.91;;;19.89
54306;BMP280;50434;45.188;5.712;2022-08-19T05:00:55;99160.22;;;19.93
54306;BMP280;50434;45.188;5.712;2022-08-19T05:03:20;99165.75;;;19.93
54306;BMP280;50434;45.188;5.712;2022-08-19T05:05:48;99165.50;;;19.89
54306;BMP280;50434;45.188;5.712;2022-08-19T05:08:16;99185.00;;;19.91
54306;BMP280;50434;45.188;5.712;2022-08-19T05:10:47;99186.31;;;19.90
54306;BMP280;50434;45.188;5.712;2022-08-19T05:13:14;99189.06;;;19.90
54306;BMP280;50434;45.188;5.712;2022-08-19T05:15:41;99191.09;;;19.90
54306;BMP280;50434;45.188;5.712;2022-08-19T05:18:07;99196.66;;;19.80
54306;BMP280;50434;45.188;5.712;2022-08-19T05:20:51;99193.75;;;19.78
54306;BMP280;50434;45.188;5.712;2022-08-19T05:23:34;99199.00;;;19.74
54306;BMP280;50434;45.188;5.712;2022-08-19T05:26:00;99207.31;;;19.74
54306;BMP280;50434;45.188;5.712;2022-08-19T05:28:26;99205.56;;;19.69
54306;BMP280;50434;45.188;5.712;2022-08-19T05:30:53;99203.66;;;19.62
54306;BMP280;50434;45.188;5.712;2022-08-19T05:33:21;99206.03;;;19.56
54306;BMP280;50434;45.188;5.712;2022-08-19T05:35:47;99207.88;;;19.53
54306;BMP280;50434;45.188;5.712;2022-08-19T05:38:15;99205.00;;;19.52
54306;BMP280;50434;45.188;5.712;2022-08-19T05:40:41;99205.72;;;19.62
54306;BMP280;50434;45.188;5.712;2022-08-19T05:43:07;99201.94;;;19.57
54306;BMP280;50434;45.188;5.712;2022-08-19T05:45:38;99217.66;;;19.64
54306;BMP280;50434;45.188;5.712;2022-08-19T05:48:03;99213.16;;;19.59
54306;BMP280;50434;45.188;5.712;2022-08-19T05:50:29;99214.03;;;19.62
54306;BMP280;50434;45.188;5.712;2022-08-19T05:52:55;99216.34;;;19.65
54306;BMP280;50434;45.188;5.712;2022-08-19T05:55:20;99212.41;;;19.68
54306;BMP280;50434;45.188;5.712;2022-08-19T05:57:47;99220.41;;;19.64
54306;BMP280;50434;45.188;5.712;2022-08-19T06:00:13;99219.13;;;19.65
54306;BMP280;50434;45.188;5.712;2022-08-19T06:02:39;99220.28;;;19.62
54306;BMP280;50434;45.188;5.712;2022-08-19T06:05:06;99223.19;;;19.64
54306;BMP280;50434;45.188;5.712;2022-08-19T06:07:37;99224.66;;;19.65
54306;BMP280;50434;45.188;5.712;2022-08-19T06:10:08;99227.97;;;19.64
54306;BMP280;50434;45.188;5.712;2022-08-19T06:12:36;99230.44;;;19.60
54306;BMP280;50434;45.188;5.712;2022-08-19T06:15:06;99231.66;;;19.66
54306;BMP280;50434;45.188;5.712;2022-08-19T06:17:31;99240.63;;;19.67
54306;BMP280;50434;45.188;5.712;2022-08-19T06:19:57;99229.75;;;19.59
54306;BMP280;50434;45.188;5.712;2022-08-19T06:22:23;99242.41;;;19.62
54306;BMP280;50434;45.188;5.712;2022-08-19T06:24:48;99240.38;;;19.63
54306;BMP280;50434;45.188;5.712;2022-08-19T06:27:18;99246.78;;;19.65
54306;BMP280;50434;45.188;5.712;2022-08-19T06:29:43;99254.19;;;19.63
54306;BMP280;50434;45.188;5.712;2022-08-19T06:32:08;99264.38;;;19.60
54306;BMP280;50434;45.188;5.712;2022-08-19T06:34:34;99268.19;;;19.65
54306;BMP280;50434;45.188;5.712;2022-08-19T06:37:01;99279.97;;;19.65
54306;BMP280;50434;45.188;5.712;2022-08-19T06:39:30;99272.69;;;19.60
54306;BMP280;50434;45.188;5.712;2022-08-19T06:42:00;99264.53;;;19.62
54306;BMP280;50434;45.188;5.712;2022-08-19T06:44:28;99272.53;;;19.68
54306;BMP280;50434;45.188;5.712;2022-08-19T06:46:54;99263.50;;;19.67
54306;BMP280;50434;45.188;5.712;2022-08-19T06:49:20;99270.38;;;19.66
54306;BMP280;50434;45.188;5.712;2022-08-19T06:51:47;99272.97;;;19.64
54306;BMP280;50434;45.188;5.712;2022-08-19T06:54:14;99273.56;;;19.72
54306;BMP280;50434;45.188;5.712;2022-08-19T06:56:40;99279.84;;;19.73
54306;BMP280;50434;45.188;5.712;2022-08-19T06:59:09;99280.09;;;19.77
54306;BMP280;50434;45.188;5.712;2022-08-19T07:01:40;99282.59;;;19.82
54306;BMP280;50434;45.188;5.712;2022-08-19T07:04:07;99278.81;;;19.87
54306;BMP280;50434;45.188;5.712;2022-08-19T07:06:34;99278.94;;;19.89
54306;BMP280;50434;45.188;5.712;2022-08-19T07:08:59;99282.31;;;19.88
54306;BMP280;50434;45.188;5.712;2022-08-19T07:11:25;99291.91;;;19.96
54306;BMP280;50434;45.188;5.712;2022-08-19T07:13:51;99295.09;;;20.02
54306;BMP280;50434;45.188;5.712;2022-08-19T07:16:19;99298.13;;;20.06
54306;BMP280;50434;45.188;5.712;2022-08-19T07:18:46;99303.97;;;20.10
54306;BMP280;50434;45.188;5.712;2022-08-19T07:21:24;99301.50;;;20.14
54306;BMP280;50434;45.188;5.712;2022-08-19T07:23:53;99310.97;;;20.11
54306;BMP280;50434;45.188;5.712;2022-08-19T07:26:22;99303.97;;;20.10
54306;BMP280;50434;45.188;5.712;2022-08-19T07:28:48;99312.13;;;20.18
54306;BMP280;50434;45.188;5.712;2022-08-19T07:31:17;99298.41;;;20.20
54306;BMP280;50434;45.188;5.712;2022-08-19T07:33:48;99309.50;;;20.20
54306;BMP280;50434;45.188;5.712;2022-08-19T07:36:16;99307.88;;;20.26
54306;BMP280;50434;45.188;5.712;2022-08-19T07:38:44;99317.19;;;20.31
54306;BMP280;50434;45.188;5.712;2022-08-19T07:41:12;99315.03;;;20.29
54306;BMP280;50434;45.188;5.712;2022-08-19T07:43:39;99311.84;;;20.33
54306;BMP280;50434;45.188;5.712;2022-08-19T07:46:05;99314.13;;;20.36
54306;BMP280;50434;45.188;5.712;2022-08-19T07:48:31;99316.91;;;20.36
54306;BMP280;50434;45.188;5.712;2022-08-19T07:51:00;99326.97;;;20.41
54306;BMP280;50434;45.188;5.712;2022-08-19T07:53:31;99330.00;;;20.45
54306;BMP280;50434;45.188;5.712;2022-08-19T07:55:58;99328.84;;;20.48
54306;BMP280;50434;45.188;5.712;2022-08-19T07:58:31;99321.38;;;20.51
54306;BMP280;50434;45.188;5.712;2022-08-19T08:00:58;99330.31;;;20.50
54306;BMP280;50434;45.188;5.712;2022-08-19T08:03:24;99325.47;;;20.50
54306;BMP280;50434;45.188;5.712;2022-08-19T08:06:11;99319.47;;;20.54
54306;BMP280;50434;45.188;5.712;2022-08-19T08:08:55;99321.94;;;20.59
54306;BMP280;50434;45.188;5.712;2022-08-19T08:11:51;99330.84;;;20.58
54306;BMP280;50434;45.188;5.712;2022-08-19T08:14:22;99325.03;;;20.63
54306;BMP280;50434;45.188;5.712;2022-08-19T08:16:49;99325.88;;;20.66
54306;BMP280;50434;45.188;5.712;2022-08-19T08:19:18;99328.66;;;20.66
54306;BMP280;50434;45.188;5.712;2022-08-19T08:21:44;99336.06;;;20.73
54306;BMP280;50434;45.188;5.712;2022-08-19T08:24:10;99332.69;;;20.74
54306;BMP280;50434;45.188;5.712;2022-08-19T08:26:36;99340.41;;;20.76
54306;BMP280;50434;45.188;5.712;2022-08-19T08:29:02;99331.53;;;20.68
54306;BMP280;50434;45.188;5.712;2022-08-19T08:31:27;99327.28;;;20.76
54306;BMP280;50434;45.188;5.712;2022-08-19T08:33:53;99334.72;;;20.74
54306;BMP280;50434;45.188;5.712;2022-08-19T08:36:19;99334.00;;;20.83
54306;BMP280;50434;45.188;5.712;2022-08-19T08:38:45;99345.78;;;20.83
54306;BMP280;50434;45.188;5.712;2022-08-19T08:41:27;99341.38;;;20.90
54306;BMP280;50434;45.188;5.712;2022-08-19T08:43:56;99341.53;;;20.92
54306;BMP280;50434;45.188;5.712;2022-08-19T08:46:29;99344.41;;;20.94
54306;BMP280;50434;45.188;5.712;2022-08-19T08:51:40;99347.47;;;20.98
54306;BMP280;50434;45.188;5.712;2022-08-19T08:54:10;99344.88;;;21.00
54306;BMP280;50434;45.188;5.712;2022-08-19T08:56:38;99341.34;;;20.99
54306;BMP280;50434;45.188;5.712;2022-08-19T08:59:16;99345.88;;;20.95
54306;BMP280;50434;45.188;5.712;2022-08-19T09:01:44;99348.47;;;21.02
54306;BMP280;50434;45.188;5.712;2022-08-19T09:04:11;99349.59;;;21.09
54306;BMP280;50434;45.188;5.712;2022-08-19T09:07:45;99352.19;;;21.16
54306;BMP280;50434;45.188;5.712;2022-08-19T09:09:52;99352.66;;;21.13
54306;BMP280;50434;45.188;5.712;2022-08-19T09:15:09;99366.06;;;21.16
54306;BMP280;50434;45.188;5.712;2022-08-19T09:17:36;99366.25;;;21.09
54306;BMP280;50434;45.188;5.712;2022-08-19T09:20:23;99366.53;;;21.13
54306;BMP280;50434;45.188;5.712;2022-08-19T09:22:48;99365.09;;;21.12
54306;BMP280;50434;45.188;5.712;2022-08-19T09:25:19;99372.22;;;21.15
54306;BMP280;50434;45.188;5.712;2022-08-19T09:27:46;99372.78;;;21.13
54306;BMP280;50434;45.188;5.712;2022-08-19T09:30:24;99379.25;;;21.06
54306;BMP280;50434;45.188;5.712;2022-08-19T09:32:50;99368.16;;;21.06
54306;BMP280;50434;45.188;5.712;2022-08-19T09:35:19;99386.69;;;21.04
54306;BMP280;50434;45.188;5.712;2022-08-19T09:37:44;99383.16;;;21.13
54306;BMP280;50434;45.188;5.712;2022-08-19T09:40:11;99386.06;;;21.15
54306;BMP280;50434;45.188;5.712;2022-08-19T09:42:37;99376.03;;;21.10
54306;BMP280;50434;45.188;5.712;2022-08-19T09:45:03;99387.13;;;21.10
54306;BMP280;50434;45.188;5.712;2022-08-19T09:47:30;99389.41;;;21.13
54306;BMP280;50434;45.188;5.712;2022-08-19T09:49:55;99388.69;;;21.13
54306;BMP280;50434;45.188;5.712;2022-08-19T09:52:21;99385.78;;;21.11
54306;BMP280;50434;45.188;5.712;2022-08-19T09:54:46;99397.63;;;21.11
54306;BMP280;50434;45.188;5.712;2022-08-19T09:57:11;99395.31;;;21.08
54306;BMP280;50434;45.188;5.712;2022-08-19T09:59:38;99397.44;;;21.19
54306;BMP280;50434;45.188;5.712;2022-08-19T10:02:05;99403.28;;;21.23
54306;BMP280;50434;45.188;5.712;2022-08-19T10:04:30;99397.72;;;21.23
54306;BMP280;50434;45.188;5.712;2022-08-19T10:07:15;99398.13;;;21.29
54306;BMP280;50434;45.188;5.712;2022-08-19T10:09:41;99391.97;;;21.30
54306;BMP280;50434;45.188;5.712;2022-08-19T10:12:07;99386.69;;;21.34
54306;BMP280;50434;45.188;5.712;2022-08-19T10:14:33;99387.53;;;21.37
54306;BMP280;50434;45.188;5.712;2022-08-19T10:16:58;99386.97;;;21.38
54306;BMP280;50434;45.188;5.712;2022-08-19T10:19:25;99397.47;;;21.40
54306;BMP280;50434;45.188;5.712;2022-08-19T10:21:51;99394.41;;;21.36
54306;BMP280;50434;45.188;5.712;2022-08-19T10:24:16;99385.66;;;21.39
54306;BMP280;50434;45.188;5.712;2022-08-19T10:26:42;99393.38;;;21.41
54306;BMP280;50434;45.188;5.712;2022-08-19T10:29:11;99393.53;;;21.43
54306;BMP280;50434;45.188;5.712;2022-08-19T10:31:37;99391.41;;;21.32
54306;BMP280;50434;45.188;5.712;2022-08-19T10:34:03;99388.88;;;21.36
54306;BMP280;50434;45.188;5.712;2022-08-19T10:36:32;99399.19;;;21.45
54306;BMP280;50434;45.188;5.712;2022-08-19T10:39:00;99407.25;;;21.41
54306;BMP280;50434;45.188;5.712;2022-08-19T10:41:32;99408.56;;;21.40
54306;BMP280;50434;45.188;5.712;2022-08-19T10:44:04;99404.00;;;21.44
54306;BMP280;50434;45.188;5.712;2022-08-19T10:46:31;99413.97;;;21.38
54306;BMP280;50434;45.188;5.712;2022-08-19T10:48:59;99408.81;;;21.44
54306;BMP280;50434;45.188;5.712;2022-08-19T10:51:24;99414.81;;;21.40
54306;BMP280;50434;45.188;5.712;2022-08-19T10:54:09;99410.88;;;21.43
54306;BMP280;50434;45.188;5.712;2022-08-19T10:56:35;99416.75;;;21.38
54306;BMP280;50434;45.188;5.712;2022-08-19T10:59:19;99427.19;;;21.28
54306;BMP280;50434;45.188;5.712;2022-08-19T11:01:46;99432.31;;;21.22
54306;BMP280;50434;45.188;5.712;2022-08-19T11:04:12;99427.78;;;21.17
54306;BMP280;50434;45.188;5.712;2022-08-19T11:06:39;99424.44;;;21.18
54306;BMP280;50434;45.188;5.712;2022-08-19T11:09:06;99415.56;;;21.20
54306;BMP280;50434;45.188;5.712;2022-08-19T11:11:32;99419.75;;;21.21
54306;BMP280;50434;45.188;5.712;2022-08-19T11:13:58;99424.13;;;21.24
54306;BMP280;50434;45.188;5.712;2022-08-19T11:16:26;99433.88;;;21.25
54306;BMP280;50434;45.188;5.712;2022-08-19T11:18:54;99427.78;;;21.26
54306;BMP280;50434;45.188;5.712;2022-08-19T11:21:23;99420.91;;;21.27
54306;BMP280;50434;45.188;5.712;2022-08-19T11:23:51;99427.19;;;21.28
54306;BMP280;50434;45.188;5.712;2022-08-19T11:26:19;99427.19;;;21.28
54306;BMP280;50434;45.188;5.712;2022-08-19T11:28:45;99427.47;;;21.32
54306;BMP280;50434;45.188;5.712;2022-08-19T11:31:15;99421.75;;;21.30
54306;BMP280;50434;45.188;5.712;2022-08-19T11:33:41;99424.78;;;21.34
54306;BMP280;50434;45.188;5.712;2022-08-19T11:36:07;99431.13;;;21.25
54306;BMP280;50434;45.188;5.712;2022-08-19T11:38:34;99434.16;;;21.29
54306;BMP280;50434;45.188;5.712;2022-08-19T11:41:04;99431.22;;;21.36
54306;BMP280;50434;45.188;5.712;2022-08-19T11:43:31;99440.34;;;21.48
54306;BMP280;50434;45.188;5.712;2022-08-19T11:45:57;99443.69;;;21.57
54306;BMP280;50434;45.188;5.712;2022-08-19T11:48:23;99427.44;;;21.63
54306;BMP280;50434;45.188;5.712;2022-08-19T11:50:50;99426.09;;;21.64
54306;BMP280;50434;45.188;5.712;2022-08-19T11:53:16;99423.00;;;21.69
54306;BMP280;50434;45.188;5.712;2022-08-19T11:55:43;99429.34;;;21.81
54306;BMP280;50434;45.188;5.712;2022-08-19T11:58:10;99421.28;;;21.85
54306;BMP280;50434;45.188;5.712;2022-08-19T12:00:35;99424.16;;;21.87
54306;BMP280;50434;45.188;5.712;2022-08-19T12:03:02;99428.09;;;21.94
54306;BMP280;50434;45.188;5.712;2022-08-19T12:05:28;99437.69;;;22.02
54306;BMP280;50434;45.188;5.712;2022-08-19T12:07:53;99426.22;;;22.08
54306;BMP280;50434;45.188;5.712;2022-08-19T12:10:20;99426.47;;;22.12
54306;BMP280;50434;45.188;5.712;2022-08-19T12:12:45;99430.38;;;22.18
54306;BMP280;50434;45.188;5.712;2022-08-19T12:15:11;99430.50;;;22.20
54306;BMP280;50434;45.188;5.712;2022-08-19T12:17:40;99429.09;;;22.31
54306;BMP280;50434;45.188;5.712;2022-08-19T12:20:09;99422.31;;;22.34
54306;BMP280;50434;45.188;5.712;2022-08-19T12:22:36;99431.19;;;22.42
54306;BMP280;50434;45.188;5.712;2022-08-19T12:25:02;99430.94;;;22.38
54306;BMP280;50434;45.188;5.712;2022-08-19T12:27:27;99424.16;;;22.41
54306;BMP280;50434;45.188;5.712;2022-08-19T12:29:54;99437.47;;;22.42
54306;BMP280;50434;45.188;5.712;2022-08-19T12:32:20;99432.97;;;22.37
54306;BMP280;50434;45.188;5.712;2022-08-19T12:34:46;99445.69;;;22.40
54306;BMP280;50434;45.188;5.712;2022-08-19T12:37:13;99435.75;;;22.37
54306;BMP280;50434;45.188;5.712;2022-08-19T12:39:41;99441.31;;;22.37
54306;BMP280;50434;45.188;5.712;2022-08-19T12:42:08;99443.44;;;22.27
54306;BMP280;50434;45.188;5.712;2022-08-19T12:44:35;99436.66;;;22.19
54306;BMP280;50434;45.188;5.712;2022-08-19T12:47:01;99453.53;;;22.11
54306;BMP280;50434;45.188;5.712;2022-08-19T12:49:30;99445.81;;;22.10
54306;BMP280;50434;45.188;5.712;2022-08-19T12:51:56;99448.91;;;22.04
54306;BMP280;50434;45.188;5.712;2022-08-19T12:54:23;99452.75;;;21.99
54306;BMP280;50434;45.188;5.712;2022-08-19T12:56:48;99441.84;;;21.92
54306;BMP280;50434;45.188;5.712;2022-08-19T12:59:14;99451.81;;;21.85
54306;BMP280;50434;45.188;5.712;2022-08-19T13:01:43;99459.59;;;21.77
54306;BMP280;50434;45.188;5.712;2022-08-19T13:04:09;99458.03;;;21.74
54306;BMP280;50434;45.188;5.712;2022-08-19T13:06:35;99460.53;;;21.70
54306;BMP280;50434;45.188;5.712;2022-08-19T13:09:01;99463.97;;;21.59
54306;BMP280;50434;45.188;5.712;2022-08-19T13:11:27;99468.56;;;21.45
54306;BMP280;50434;45.188;5.712;2022-08-19T13:13:58;99458.53;;;21.30
54306;BMP280;50434;45.188;5.712;2022-08-19T13:16:24;99464.47;;;21.15
54306;BMP280;50434;45.188;5.712;2022-08-19T13:18:51;99471.59;;;21.18
54306;BMP280;50434;45.188;5.712;2022-08-19T13:21:23;99472.06;;;21.05
54306;BMP280;50434;45.188;5.712;2022-08-19T13:23:48;99471.09;;;20.91
54306;BMP280;50434;45.188;5.712;2022-08-19T13:26:15;99458.81;;;20.85
54306;BMP280;50434;45.188;5.712;2022-08-19T13:28:42;99468.31;;;20.91
54306;BMP280;50434;45.188;5.712;2022-08-19T13:31:28;99472.41;;;20.81
54306;BMP280;50434;45.188;5.712;2022-08-19T13:34:13;99462.34;;;20.76
54306;BMP280;50434;45.188;5.712;2022-08-19T13:36:40;99457.09;;;20.70
54306;BMP280;50434;45.188;5.712;2022-08-19T13:39:08;99459.44;;;20.64
54306;BMP280;50434;45.188;5.712;2022-08-19T13:41:35;99454.78;;;20.67
54306;BMP280;50434;45.188;5.712;2022-08-19T13:44:01;99452.44;;;20.73
54306;BMP280;50434;45.188;5.712;2022-08-19T13:46:27;99452.75;;;20.67
54306;BMP280;50434;45.188;5.712;2022-08-19T13:48:54;99440.78;;;20.65
54306;BMP280;50434;45.188;5.712;2022-08-19T13:51:21;99446.75;;;20.71
54306;BMP280;50434;45.188;5.712;2022-08-19T13:53:47;99444.28;;;20.65
54306;BMP280;50434;45.188;5.712;2022-08-19T13:56:16;99448.19;;;20.72
54306;BMP280;50434;45.188;5.712;2022-08-19T13:58:42;99460.75;;;20.73
54306;BMP280;50434;45.188;5.712;2022-08-19T14:01:08;99458.00;;;20.73
54306;BMP280;50434;45.188;5.712;2022-08-19T14:03:34;99459.72;;;20.68
54306;BMP280;50434;45.188;5.712;2022-08-19T14:06:00;99466.91;;;20.71
54306;BMP280;50434;45.188;5.712;2022-08-19T14:08:27;99466.16;;;20.71
54306;BMP280;50434;45.188;5.712;2022-08-19T14:10:54;99464.53;;;20.77
54306;BMP280;50434;45.188;5.712;2022-08-19T14:13:22;99475.47;;;20.85
54306;BMP280;50434;45.188;5.712;2022-08-19T14:15:48;99469.91;;;20.85
54306;BMP280;50434;45.188;5.712;2022-08-19T14:18:16;99467.88;;;20.85
54306;BMP280;50434;45.188;5.712;2022-08-19T14:20:42;99466.13;;;20.80